• Join FlightAware (Why Join?)
  • Login
  • US Flag 
04:49PM EDT


 

Airport Tracker/Info


-or-


 

Live Flight TrackerFlight Track Log ✈ SKW5631 ✈ 01-Aug-2013 ✈ KSFO - KBUR

Flight Track Log - Related Links

Times and Time Zones

All times are in EDT time to prevent confusion due to time zone crossing. See the SKW5631 flight status page for this flight to view local times or setup timezone preferences in your user account.

Time Position Orientation Groundspeed Altitude Reporting Facility
EDT Latitude Longitude Course Direction KTS MPH feet Rate Location/Type
10:07PM 37.6333 -122.3667 122° Southeast 161 185 800  Level Northern Cal TRACON
10:09PM 37.6969 -122.4067 334° Northwest 214 246 3,500 1,860 Climbing Oakland Center
10:10PM 37.6406 -122.4511 212° Southwest 267 307 5,700 2,700 Climbing Oakland Center
10:11PM 37.5444 -122.4647 186° South 287 330 9,100 2,700 Climbing Oakland Center
10:12PM 37.1539 -121.9607 133° Southeast  Level FlightAware Approximate
10:12PM 37.4639 -122.4392 166° South 315 362 11,300  Level Oakland Center
10:13PM 37.0595 -121.8357 122° Southeast  Level FlightAware Approximate
10:13PM 37.3833 -122.3889 154° Southeast 323 372 13,400  Level Oakland Center
10:14PM 37.3031 -122.3369 153° Southeast 324 373 15,600 1,920 Climbing Oakland Center
10:15PM 37.2336 -122.2542 136° Southeast 343 395 17,400 1,740 Climbing Oakland Center
10:16PM 37.1611 -122.1706 137° Southeast 350 403 19,200 1,560 Climbing Oakland Center
10:17PM 37.0883 -122.0864 137° Southeast 355 409 20,700 1,260 Climbing Oakland Center
10:18PM 37.0125 -121.9997 138° Southeast 365 420 21,800 1,140 Climbing Oakland Center
10:19PM 36.9353 -121.9103 137° Southeast 375 432 23,100 1,320 Climbing Oakland Center
10:20PM 36.8419 -121.8031 137° Southeast 379 436 24,500 1,140 Climbing Oakland Center
10:21PM 36.7778 -121.7242 135° Southeast 383 441 25,500 1,020 Climbing Oakland Center
10:22PM 36.6800 -121.6156 138° Southeast 390 449 26,600 720 Climbing Oakland Center
10:23PM 36.5975 -121.5239 138° Southeast 397 457 27,000 180 Climbing Oakland Center
10:24PM 36.5117 -121.4272 138° Southeast 411 473 27,000  Level Oakland Center
10:25PM 36.4269 -121.3317 138° Southeast 412 474 27,000  Level Oakland Center
10:26PM 36.3411 -121.2364 138° Southeast 413 475 27,000  Level Oakland Center
10:27PM 36.2556 -121.1394 138° Southeast 415 478 27,000  Level Oakland Center
10:29PM 36.1708 -121.0450 138° Southeast 411 473 27,000  Level Oakland Center
10:30PM 36.0842 -120.9503 139° Southeast 414 476 27,000  Level Oakland Center
10:31PM 35.9992 -120.8558 138° Southeast 412 474 27,000  Level Oakland Center
10:32PM 35.8975 -120.7431 138° Southeast 409 471 27,000  Level Oakland Center
10:33PM 35.8125 -120.6492 138° Southeast 408 470 27,000  Level Oakland Center
10:34PM 35.7275 -120.5550 138° Southeast 408 470 27,000  Level Oakland Center
10:35PM 35.6431 -120.4619 138° Southeast 408 470 27,000  Level Oakland Center
10:36PM 35.5581 -120.3681 138° Southeast 407 468 27,000  Level Oakland Center
10:37PM 35.4769 -120.2792 138° Southeast 407 468 27,000  Level Oakland Center
10:38PM 35.3733 -120.1672 139° Southeast 414 476 27,000  Level Los Angeles Center
10:39PM 35.2783 -120.0639 138° Southeast 410 472 27,000  Level Los Angeles Center
10:40PM 35.1925 -119.9711 139° Southeast 410 472 27,000  Level Los Angeles Center
10:41PM 35.1067 -119.8794 139° Southeast 409 471 27,000  Level Los Angeles Center
10:42PM 35.0289 -119.7772 133° Southeast 412 474 27,000  Level Los Angeles Center
10:43PM 34.9517 -119.6728 132° Southeast 414 476 27,000 -1,260 Level Los Angeles Center
10:44PM 34.8750 -119.5706 132° Southeast 410 472 24,500 -3,000 Descending Los Angeles Center
10:45PM 34.7836 -119.4469 132° Southeast 409 471 20,900 -3,180 Descending Los Angeles Center
10:46PM 34.7089 -119.3467 132° Southeast 401 461 18,000 -2,880 Descending Los Angeles Center
10:47PM 34.6375 -119.2500 132° Southeast 389 448 15,100 -2,820 Descending Los Angeles Center
10:48PM 34.5683 -119.1628 134° Southeast 376 433 12,300 -2,040 Descending Los Angeles Center
10:49PM 34.5033 -119.0731 131° Southeast 347 399 11,000 -1,140 Descending Los Angeles Center
10:50PM 34.4322 -118.9808 133° Southeast 317 365 10,000 -720 Descending Los Angeles Center
10:51PM 34.3756 -118.9042 132° Southeast 302 348 9,600 -540 Descending Los Angeles Center
10:52PM 34.3131 -118.8525 146° Southeast 272 313 9,000 -840 Descending Los Angeles Center
10:53PM 34.2608 -118.8022 141° Southeast 248 285 7,900 -1,140 Descending Los Angeles Center
10:54PM 34.2378 -118.7281 111° Southeast 236 272 6,700 -1,140 Descending Los Angeles Center
10:55PM 34.2153 -118.6564 111° Southeast 233 268 5,600 -1,140 Descending Los Angeles Center
10:56PM 34.2003 -118.5900 105° East 220 253 4,400 -1,080 Descending Los Angeles Center
10:57PM 34.2006 -118.5283 90° East 192 221 3,400 -1,020 Descending Los Angeles Center
10:58PM 34.1997 -118.4569 91° East 180 207 2,400 -1,020 Descending Los Angeles Center
10:59PM 34.1992 -118.4069 91° East 158 182 1,400 -780 Descending Los Angeles Center
11:01PM 34.1986 -118.3681 91° East 143 165 900 -540 Descending Los Angeles Center